createdAt,value
2022-09-03T00:00:07.022Z,21.65
2022-09-03T00:02:45.881Z,21.83
2022-09-03T00:05:25.732Z,22.00
2022-09-03T00:08:10.283Z,21.96
2022-09-03T00:10:56.290Z,21.81
2022-09-03T00:13:31.855Z,21.50
2022-09-03T00:16:01.943Z,21.41
2022-09-03T00:18:33.507Z,21.16
2022-09-03T00:21:09.863Z,21.23
2022-09-03T00:23:40.835Z,21.26
2022-09-03T00:26:15.440Z,21.23
2022-09-03T00:28:48.523Z,21.30
2022-09-03T00:31:28.403Z,21.31
2022-09-03T00:34:05.268Z,21.26
2022-09-03T00:36:50.967Z,21.27
2022-09-03T00:39:21.429Z,21.32
2022-09-03T00:42:08.678Z,21.18
2022-09-03T00:44:48.660Z,21.25
2022-09-03T00:47:25.599Z,21.30
2022-09-03T00:50:31.181Z,21.24
2022-09-03T00:53:23.099Z,21.16
2022-09-03T00:56:02.562Z,21.11
2022-09-03T00:58:32.831Z,21.12
2022-09-03T01:01:06.094Z,21.12
2022-09-03T01:04:07.756Z,21.02
2022-09-03T01:06:58.603Z,21.10
2022-09-03T01:09:33.570Z,21.26
2022-09-03T01:12:18.806Z,21.21
2022-09-03T01:14:52.666Z,21.13
2022-09-03T01:17:33.003Z,21.16
2022-09-03T01:20:38.497Z,21.10
2022-09-03T01:23:27.743Z,21.21
2022-09-03T01:26:15.982Z,21.28
2022-09-03T01:29:07.508Z,21.51
2022-09-03T01:31:50.088Z,21.56
2022-09-03T01:34:45.040Z,21.72
2022-09-03T01:37:33.865Z,21.65
2022-09-03T01:40:38.674Z,21.69
2022-09-03T01:43:45.491Z,21.71
2022-09-03T01:46:24.973Z,21.70
2022-09-03T01:48:52.386Z,21.84
2022-09-03T01:51:25.447Z,21.95
2022-09-03T01:54:20.978Z,21.71
2022-09-03T01:57:35.326Z,21.35
2022-09-03T02:00:20.508Z,21.27
2022-09-03T02:02:51.589Z,21.28
2022-09-03T02:05:24.174Z,21.03
2022-09-03T02:07:57.154Z,20.98
2022-09-03T02:10:31.591Z,21.04
2022-09-03T02:13:09.854Z,21.12
2022-09-03T02:15:40.075Z,21.00
2022-09-03T02:18:15.295Z,21.07
2022-09-03T02:20:43.056Z,21.15
2022-09-03T02:23:11.127Z,21.17
2022-09-03T02:25:47.174Z,21.06
2022-09-03T02:28:16.996Z,21.02
2022-09-03T02:30:45.510Z,20.98
2022-09-03T02:33:13.014Z,20.93
2022-09-03T02:35:41.741Z,20.82
2022-09-03T02:38:11.820Z,20.99
2022-09-03T02:40:39.739Z,20.88
2022-09-03T02:43:14.102Z,20.76
2022-09-03T02:45:47.674Z,20.69
2022-09-03T02:48:22.888Z,20.55
2022-09-03T02:50:50.485Z,20.54
2022-09-03T02:53:18.089Z,20.44
2022-09-03T02:55:46.046Z,20.56
2022-09-03T02:58:14.040Z,20.52
2022-09-03T03:00:41.570Z,20.68
2022-09-03T03:03:08.983Z,20.63
2022-09-03T03:05:45.269Z,20.62
2022-09-03T03:08:15.346Z,20.66
2022-09-03T03:10:46.728Z,20.78
2022-09-03T03:13:14.499Z,20.76
2022-09-03T03:15:42.528Z,20.83
2022-09-03T03:18:12.104Z,20.80
2022-09-03T03:20:40.478Z,20.86
2022-09-03T03:23:09.007Z,20.74
2022-09-03T03:25:38.744Z,20.80
2022-09-03T03:28:07.119Z,20.73
2022-09-03T03:30:38.636Z,20.86
2022-09-03T03:33:07.515Z,21.01
2022-09-03T03:35:36.216Z,20.90
2022-09-03T03:38:04.131Z,20.61
2022-09-03T03:40:31.558Z,20.74
2022-09-03T03:42:59.122Z,20.59
2022-09-03T03:45:26.780Z,20.60
2022-09-03T03:47:58.244Z,20.49
2022-09-03T03:50:25.870Z,20.58
2022-09-03T03:52:53.247Z,20.68
2022-09-03T03:55:20.779Z,20.62
2022-09-03T03:57:48.227Z,20.77
2022-09-03T04:00:16.067Z,20.74
2022-09-03T04:02:43.739Z,20.64
2022-09-03T04:05:11.125Z,20.41
2022-09-03T04:07:38.916Z,20.48
2022-09-03T04:10:09.493Z,20.46
2022-09-03T04:12:36.927Z,20.44
2022-09-03T04:15:05.343Z,20.40
2022-09-03T04:17:32.897Z,20.19
2022-09-03T04:20:00.270Z,20.21
2022-09-03T04:22:29.515Z,20.29
2022-09-03T04:24:56.863Z,20.29
2022-09-03T04:27:24.859Z,20.46
2022-09-03T04:29:52.246Z,20.24
2022-09-03T04:32:38.170Z,20.08
2022-09-03T04:35:06.052Z,20.10
2022-09-03T04:37:33.578Z,20.21
2022-09-03T04:40:01.057Z,20.25
2022-09-03T04:42:28.495Z,20.28
2022-09-03T04:44:55.896Z,20.22
2022-09-03T04:47:23.594Z,20.16
2022-09-03T04:49:50.991Z,20.10
2022-09-03T04:52:19.581Z,19.82
2022-09-03T04:54:46.949Z,19.79
2022-09-03T04:57:14.347Z,19.90
2022-09-03T04:59:42.792Z,19.75
2022-09-03T05:02:10.502Z,19.86
2022-09-03T05:04:38.037Z,19.85
2022-09-03T05:07:05.455Z,19.87
2022-09-03T05:09:32.894Z,19.77
2022-09-03T05:12:02.434Z,19.86
2022-09-03T05:14:29.851Z,19.89
2022-09-03T05:16:57.286Z,19.94
2022-09-03T05:19:26.090Z,20.08
2022-09-03T05:21:53.468Z,20.25
2022-09-03T05:24:21.188Z,20.33
2022-09-03T05:26:49.147Z,20.31
2022-09-03T05:29:16.630Z,20.30
2022-09-03T05:31:44.067Z,20.28
2022-09-03T05:34:16.392Z,20.38
2022-09-03T05:36:47.102Z,20.44
2022-09-03T05:39:14.543Z,20.44
2022-09-03T05:41:44.945Z,20.59
2022-09-03T05:44:12.401Z,20.58
2022-09-03T05:46:41.943Z,20.71
2022-09-03T05:49:09.624Z,20.83
2022-09-03T05:51:39.868Z,21.02
2022-09-03T05:54:11.396Z,21.09
2022-09-03T05:56:40.261Z,21.24
2022-09-03T05:59:09.555Z,21.33
2022-09-03T06:01:39.387Z,21.33
2022-09-03T06:04:12.678Z,21.31
2022-09-03T06:06:42.610Z,21.43
2022-09-03T06:09:13.707Z,21.49
2022-09-03T06:11:42.636Z,21.59
2022-09-03T06:14:13.253Z,21.50
2022-09-03T06:16:43.588Z,21.59
2022-09-03T06:19:12.056Z,22.00
2022-09-03T06:21:44.707Z,22.17
2022-09-03T06:24:17.590Z,22.30
2022-09-03T06:26:45.511Z,22.26
2022-09-03T06:29:13.418Z,22.35
2022-09-03T06:31:40.942Z,22.78
2022-09-03T06:34:08.568Z,22.88
2022-09-03T06:36:36.142Z,22.79
2022-09-03T06:39:03.747Z,22.93
2022-09-03T06:41:35.487Z,23.45
2022-09-03T06:44:05.676Z,24.07
2022-09-03T06:46:39.091Z,25.42
2022-09-03T06:49:06.885Z,27.22
2022-09-03T06:51:34.449Z,27.85
2022-09-03T06:54:10.627Z,28.28
2022-09-03T06:56:41.243Z,28.06
2022-09-03T06:59:14.083Z,27.31
2022-09-03T07:01:45.310Z,26.59
2022-09-03T07:04:16.300Z,26.72
2022-09-03T07:06:44.491Z,27.07
2022-09-03T07:09:13.408Z,27.79
2022-09-03T07:11:47.498Z,27.69
2022-09-03T07:14:17.415Z,27.69
2022-09-03T07:16:46.293Z,27.14
2022-09-03T07:19:14.266Z,26.32
2022-09-03T07:21:48.156Z,26.62
2022-09-03T07:24:18.129Z,26.23
2022-09-03T07:26:48.925Z,26.79
2022-09-03T07:29:20.607Z,26.80
2022-09-03T07:31:51.992Z,26.84
2022-09-03T07:34:22.121Z,27.81
2022-09-03T07:36:51.882Z,28.13
2022-09-03T07:39:19.994Z,28.72
2022-09-03T07:41:47.704Z,28.47
2022-09-03T07:44:20.210Z,28.47
2022-09-03T07:46:51.413Z,28.89
2022-09-03T07:49:21.219Z,27.86
2022-09-03T07:51:52.338Z,27.73
2022-09-03T07:54:21.573Z,28.46
2022-09-03T07:56:49.368Z,28.25
2022-09-03T07:59:16.739Z,28.71
2022-09-03T08:01:44.418Z,29.60
2022-09-03T08:04:11.967Z,29.48
2022-09-03T08:06:39.706Z,28.83
2022-09-03T08:09:11.362Z,28.32
2022-09-03T08:11:40.196Z,27.74
2022-09-03T08:14:10.032Z,29.09
2022-09-03T08:16:47.978Z,29.77
2022-09-03T08:19:18.239Z,31.11
2022-09-03T08:21:45.991Z,31.66
2022-09-03T08:24:15.992Z,30.45
2022-09-03T08:26:47.609Z,30.44
2022-09-03T08:29:18.356Z,30.73
2022-09-03T08:31:45.888Z,31.62
2022-09-03T08:34:14.686Z,30.94
2022-09-03T08:36:42.407Z,31.03
2022-09-03T08:39:13.458Z,31.24
2022-09-03T08:42:11.587Z,30.43
2022-09-03T08:44:41.914Z,31.03
2022-09-03T08:48:06.757Z,30.97
2022-09-03T08:50:44.399Z,31.56
2022-09-03T08:53:46.202Z,32.16
2022-09-03T08:56:31.143Z,32.14
2022-09-03T08:59:00.819Z,31.36
2022-09-03T09:01:35.349Z,32.18
2022-09-03T09:04:24.469Z,31.20
2022-09-03T09:07:07.656Z,30.44
2022-09-03T09:10:07.430Z,31.61
2022-09-03T09:12:46.790Z,31.82
2022-09-03T09:15:42.930Z,32.10
2022-09-03T09:18:51.778Z,32.59
2022-09-03T09:21:27.880Z,31.64
2022-09-03T09:24:02.088Z,32.11
2022-09-03T09:26:30.103Z,31.97
2022-09-03T09:29:09.448Z,32.15
2022-09-03T09:31:40.078Z,32.49
2022-09-03T09:34:09.288Z,32.07
2022-09-03T09:36:52.242Z,30.41
2022-09-03T09:39:20.968Z,31.14
2022-09-03T09:42:10.037Z,31.25
2022-09-03T09:44:39.622Z,31.28
2022-09-03T09:47:39.353Z,31.79
2022-09-03T09:50:26.362Z,31.72
2022-09-03T09:53:06.909Z,31.89
2022-09-03T09:55:34.871Z,31.70
2022-09-03T09:58:14.023Z,32.65
2022-09-03T10:00:42.903Z,32.56
2022-09-03T10:03:13.798Z,32.23
2022-09-03T10:05:41.656Z,32.05
2022-09-03T10:08:21.457Z,32.52
2022-09-03T10:10:50.499Z,32.48
2022-09-03T10:13:40.580Z,31.54
2022-09-03T10:16:30.339Z,31.99
2022-09-03T10:19:06.871Z,32.44
2022-09-03T10:21:40.611Z,32.93
2022-09-03T10:24:23.095Z,34.25
2022-09-03T10:26:50.508Z,33.33
2022-09-03T10:29:22.222Z,32.30
2022-09-03T10:31:58.759Z,33.57
2022-09-03T10:34:38.688Z,33.50
2022-09-03T10:37:25.011Z,33.50
2022-09-03T10:39:58.992Z,33.74
2022-09-03T10:42:54.361Z,33.67
2022-09-03T10:45:47.331Z,33.25
2022-09-03T10:48:52.120Z,31.45
2022-09-03T10:51:34.197Z,30.55
2022-09-03T10:54:34.365Z,30.38
2022-09-03T10:57:45.219Z,30.78
2022-09-03T11:00:16.222Z,29.39
2022-09-03T11:03:05.459Z,29.31
2022-09-03T11:05:39.309Z,29.46
2022-09-03T11:08:17.019Z,29.85
2022-09-03T11:10:56.535Z,30.80
2022-09-03T11:13:31.306Z,31.04
2022-09-03T11:16:05.043Z,30.92
2022-09-03T11:18:40.871Z,32.09
2022-09-03T11:21:13.132Z,32.50
2022-09-03T11:23:58.190Z,31.53
2022-09-03T11:26:27.832Z,31.37
2022-09-03T11:29:01.147Z,30.84
2022-09-03T11:32:02.367Z,31.38
2022-09-03T11:34:34.003Z,31.55
2022-09-03T11:37:18.653Z,32.08
2022-09-03T11:39:56.568Z,30.81
2022-09-03T11:42:39.065Z,30.85
2022-09-03T11:45:32.564Z,31.09
2022-09-03T11:48:00.066Z,31.43
2022-09-03T11:50:33.234Z,31.53
2022-09-03T11:53:30.140Z,31.48
2022-09-03T11:56:13.004Z,31.45
2022-09-03T11:58:44.173Z,31.63
2022-09-03T12:01:17.649Z,31.53
2022-09-03T12:03:50.018Z,31.38
2022-09-03T12:06:39.143Z,30.33
2022-09-03T12:09:09.489Z,29.95
2022-09-03T12:12:06.041Z,30.56
2022-09-03T12:14:36.552Z,30.15
2022-09-03T12:18:15.134Z,30.34
2022-09-03T12:20:43.706Z,30.29
2022-09-03T12:23:14.568Z,29.90
2022-09-03T12:25:47.490Z,29.76
2022-09-03T12:28:23.498Z,29.60
2022-09-03T12:30:53.462Z,29.73
2022-09-03T12:33:23.386Z,30.04
2022-09-03T12:36:01.934Z,29.91
2022-09-03T12:38:30.520Z,30.31
2022-09-03T12:43:53.296Z,29.71
2022-09-03T12:46:24.706Z,29.81
2022-09-03T12:52:06.162Z,29.89
2022-09-03T12:54:39.190Z,29.78
2022-09-03T12:57:06.881Z,30.12
2022-09-03T12:59:38.123Z,30.86
2022-09-03T13:02:16.744Z,30.59
2022-09-03T13:04:46.266Z,31.17
2022-09-03T13:07:25.795Z,30.93
2022-09-03T13:10:04.188Z,30.75
2022-09-03T13:12:53.348Z,29.97
2022-09-03T13:15:26.142Z,29.60
2022-09-03T13:18:24.518Z,29.99
2022-09-03T13:21:30.439Z,30.13
2022-09-03T13:24:15.275Z,30.21
2022-09-03T13:26:49.509Z,29.86
2022-09-03T13:29:40.175Z,29.61
2022-09-03T13:32:36.318Z,29.62
2022-09-03T13:35:30.671Z,29.34
2022-09-03T13:38:23.035Z,29.47
2022-09-03T13:41:19.728Z,29.47
2022-09-03T13:43:57.582Z,29.44
2022-09-03T13:46:36.196Z,29.80
2022-09-03T13:49:50.098Z,30.13
2022-09-03T13:52:35.012Z,30.04
2022-09-03T13:55:09.350Z,30.25
2022-09-03T13:57:36.885Z,30.08
2022-09-03T14:00:13.323Z,30.23
2022-09-03T14:03:03.779Z,29.95
2022-09-03T14:06:09.380Z,30.13
2022-09-03T14:09:04.693Z,30.07
2022-09-03T14:11:59.099Z,29.67
2022-09-03T14:14:45.806Z,29.39
2022-09-03T14:17:25.274Z,29.33
2022-09-03T14:20:04.145Z,29.01
2022-09-03T14:22:59.092Z,28.74
2022-09-03T14:25:30.735Z,28.76
2022-09-03T14:28:36.438Z,28.41
2022-09-03T14:31:12.641Z,28.29
2022-09-03T14:33:48.128Z,28.12
2022-09-03T14:36:30.277Z,28.09
2022-09-03T14:39:28.400Z,27.87
2022-09-03T14:42:09.059Z,27.85
2022-09-03T14:44:55.369Z,27.92
2022-09-03T14:47:38.344Z,27.77
2022-09-03T14:50:29.059Z,28.13
2022-09-03T14:53:09.279Z,28.09
2022-09-03T14:55:57.906Z,27.97
2022-09-03T14:58:55.350Z,27.90
2022-09-03T15:01:37.605Z,28.11
2022-09-03T15:04:25.706Z,27.87
2022-09-03T15:07:08.310Z,27.89
2022-09-03T15:10:07.017Z,27.91
2022-09-03T15:12:43.306Z,27.69
2022-09-03T15:15:19.543Z,27.90
2022-09-03T15:17:55.973Z,27.62
2022-09-03T15:20:46.943Z,27.83
2022-09-03T15:23:38.103Z,28.18
2022-09-03T15:26:40.112Z,28.04
2022-09-03T15:29:16.328Z,27.78
2022-09-03T15:32:00.751Z,27.47
2022-09-03T15:34:48.423Z,27.46
2022-09-03T15:37:30.323Z,27.42
2022-09-03T15:40:15.888Z,27.08
2022-09-03T15:42:48.824Z,27.12
2022-09-03T15:45:28.586Z,27.12
2022-09-03T15:48:05.873Z,27.15
2022-09-03T15:50:50.373Z,27.05
2022-09-03T15:53:39.890Z,26.89
2022-09-03T15:56:23.661Z,26.77
2022-09-03T15:58:56.369Z,26.70
2022-09-03T16:01:36.969Z,26.97
2022-09-03T16:04:16.562Z,27.02
2022-09-03T16:07:21.578Z,27.01
2022-09-03T16:10:23.858Z,26.96
2022-09-03T16:12:53.616Z,26.70
2022-09-03T16:15:26.037Z,26.75
2022-09-03T16:18:10.967Z,26.65
2022-09-03T16:20:55.242Z,26.52
2022-09-03T16:23:28.019Z,26.85
2022-09-03T16:26:06.968Z,26.77
2022-09-03T16:28:48.099Z,26.73
2022-09-03T16:31:48.117Z,27.10
2022-09-03T16:35:03.707Z,27.31
2022-09-03T16:37:31.053Z,27.03
2022-09-03T16:40:01.207Z,26.94
2022-09-03T16:42:40.459Z,26.91
2022-09-03T16:45:17.041Z,26.99
2022-09-03T16:48:12.728Z,26.77
2022-09-03T16:51:07.451Z,26.91
2022-09-03T16:54:05.123Z,26.81
2022-09-03T16:56:58.791Z,26.66
2022-09-03T16:59:51.047Z,26.65
2022-09-03T17:02:40.107Z,26.58
2022-09-03T17:05:45.718Z,26.55
2022-09-03T17:08:54.271Z,26.48
2022-09-03T17:11:39.836Z,26.28
2022-09-03T17:14:29.104Z,26.20
2022-09-03T17:17:08.896Z,26.07
2022-09-03T17:20:14.951Z,26.10
2022-09-03T17:23:09.851Z,26.08
2022-09-03T17:25:39.743Z,26.03
2022-09-03T17:28:42.668Z,26.14
2022-09-03T17:31:28.964Z,25.97
2022-09-03T17:34:13.466Z,25.85
2022-09-03T17:37:10.213Z,25.77
2022-09-03T17:40:02.327Z,25.68
2022-09-03T17:42:54.571Z,25.67
2022-09-03T17:45:36.523Z,25.53
2022-09-03T17:48:18.351Z,25.49
2022-09-03T17:50:59.375Z,25.51
2022-09-03T17:53:39.710Z,25.48
2022-09-03T17:56:20.249Z,25.31
2022-09-03T17:59:19.569Z,25.29
2022-09-03T18:02:19.132Z,25.25
2022-09-03T18:05:18.417Z,25.18
2022-09-03T18:08:02.749Z,25.15
2022-09-03T18:10:51.981Z,25.06
2022-09-03T18:13:56.810Z,24.95
2022-09-03T18:16:28.671Z,24.91
2022-09-03T18:19:21.180Z,24.86
2022-09-03T18:22:08.995Z,24.75
2022-09-03T18:25:06.026Z,24.71
2022-09-03T18:27:53.971Z,24.60
2022-09-03T18:30:39.923Z,24.66
2022-09-03T18:33:26.134Z,24.59
2022-09-03T18:36:16.846Z,24.65
2022-09-03T18:39:03.122Z,24.65
2022-09-03T18:42:20.588Z,24.64
2022-09-03T18:45:42.276Z,24.58
2022-09-03T18:48:53.505Z,24.53
2022-09-03T18:52:17.103Z,24.48
2022-09-03T18:55:34.239Z,24.50
2022-09-03T18:58:49.627Z,24.52
2022-09-03T19:01:35.563Z,24.53
2022-09-03T19:04:33.978Z,24.43
2022-09-03T19:07:45.803Z,24.39
2022-09-03T19:10:43.570Z,24.32
2022-09-03T19:13:35.480Z,24.34
2022-09-03T19:16:29.882Z,24.24
2022-09-03T19:19:54.831Z,24.28
2022-09-03T19:22:55.732Z,24.16
2022-09-03T19:25:43.339Z,24.21
2022-09-03T19:28:37.656Z,24.06
2022-09-03T19:31:23.405Z,23.99
2022-09-03T19:34:32.859Z,24.10
2022-09-03T19:37:30.961Z,24.17
2022-09-03T19:40:35.892Z,24.16
2022-09-03T19:43:31.587Z,24.02
2022-09-03T19:46:29.332Z,24.11
2022-09-03T19:49:54.100Z,24.18
2022-09-03T19:52:46.389Z,24.16
2022-09-03T19:55:34.937Z,24.05
2022-09-03T19:58:42.041Z,23.93
2022-09-03T20:01:28.396Z,24.01
2022-09-03T20:04:17.508Z,23.94
2022-09-03T20:07:05.270Z,23.91
2022-09-03T20:09:56.718Z,23.89
2022-09-03T20:12:28.926Z,23.97
2022-09-03T20:14:56.336Z,23.97
2022-09-03T20:17:43.503Z,23.90
2022-09-03T20:20:28.210Z,23.82
2022-09-03T20:22:58.102Z,23.78
2022-09-03T20:25:36.218Z,23.74
2022-09-03T20:28:18.444Z,23.90
2022-09-03T20:31:17.199Z,23.94
2022-09-03T20:33:47.611Z,23.83
2022-09-03T20:36:32.552Z,23.99
2022-09-03T20:39:21.203Z,23.92
2022-09-03T20:41:57.901Z,23.75
2022-09-03T20:44:53.409Z,23.78
2022-09-03T20:47:57.181Z,23.73
2022-09-03T20:50:37.450Z,23.75
2022-09-03T20:53:15.990Z,23.87
2022-09-03T20:55:49.023Z,23.76
2022-09-03T20:58:48.299Z,23.70
2022-09-03T21:01:52.240Z,23.67
2022-09-03T21:04:57.301Z,23.52
2022-09-03T21:07:59.811Z,23.42
2022-09-03T21:10:33.244Z,23.50
2022-09-03T21:13:11.603Z,23.59
2022-09-03T21:15:46.821Z,23.76
2022-09-03T21:18:33.483Z,23.71
2022-09-03T21:21:43.865Z,23.72
2022-09-03T21:24:12.440Z,23.57
2022-09-03T21:26:50.720Z,23.42
2022-09-03T21:29:26.080Z,23.34
2022-09-03T21:32:04.494Z,23.29
2022-09-03T21:34:41.036Z,23.32
2022-09-03T21:37:13.554Z,23.22
2022-09-03T21:39:54.626Z,23.09
2022-09-03T21:42:36.530Z,23.12
2022-09-03T21:45:18.273Z,23.07
2022-09-03T21:47:53.818Z,23.14
2022-09-03T21:50:25.551Z,23.04
2022-09-03T21:53:12.954Z,23.11
2022-09-03T21:56:18.782Z,22.89
2022-09-03T21:59:23.743Z,22.96
2022-09-03T22:02:23.670Z,22.98
2022-09-03T22:04:51.783Z,23.08
2022-09-03T22:07:40.662Z,23.04
2022-09-03T22:10:21.068Z,23.07
2022-09-03T22:13:14.810Z,23.05
2022-09-03T22:15:50.672Z,22.93
2022-09-03T22:18:28.937Z,22.92
2022-09-03T22:21:19.823Z,22.82
2022-09-03T22:24:23.330Z,22.88
2022-09-03T22:27:10.685Z,22.93
2022-09-03T22:29:59.763Z,22.81
2022-09-03T22:32:40.541Z,22.71
2022-09-03T22:35:38.916Z,22.56
2022-09-03T22:38:40.293Z,22.57
2022-09-03T22:41:22.761Z,22.75
2022-09-03T22:44:07.495Z,22.69
2022-09-03T22:47:13.265Z,22.80
2022-09-03T22:49:47.472Z,22.80
2022-09-03T22:52:32.102Z,22.65
2022-09-03T22:55:11.551Z,22.53
2022-09-03T22:57:49.684Z,22.57
2022-09-03T23:00:17.971Z,22.67
2022-09-03T23:02:51.133Z,22.84
2022-09-03T23:05:35.560Z,22.61
2022-09-03T23:08:14.373Z,22.58
2022-09-03T23:10:53.888Z,22.40
2022-09-03T23:13:41.994Z,22.43
2022-09-03T23:16:32.645Z,22.30
2022-09-03T23:19:05.403Z,22.42
2022-09-03T23:21:41.912Z,22.39
2022-09-03T23:24:20.423Z,22.27
2022-09-03T23:26:51.552Z,22.29
2022-09-03T23:29:26.230Z,22.31
2022-09-03T23:31:57.622Z,22.19
2022-09-03T23:34:27.095Z,22.08
2022-09-03T23:37:34.877Z,22.03
2022-09-03T23:40:05.457Z,21.81
2022-09-03T23:42:54.163Z,21.76
2022-09-03T23:45:38.775Z,21.71
2022-09-03T23:48:45.244Z,21.60
2022-09-03T23:51:42.265Z,21.64
2022-09-03T23:54:18.575Z,21.66
2022-09-03T23:57:03.714Z,21.56
